Time;durP1;ratioP1;P1;durP2;ratioP2;P2;SDS_P1;SDS_P2;PMS_P1;PMS_P2;Temp;Humidity;BMP_temperature;BMP_pressure;BME280_temperature;BME280_humidity;BME280_pressure;Samples;Min_cycle;Max_cycle;Signal;HPM_P1;HPM_P2
2022/06/07 00:01:06;;;;;;;10.73;8.63;;;19.90;99.90;;;;;;5045168;28;20614;-67
2022/06/07 00:03:33;;;;;;;11.50;8.50;;;19.90;99.90;;;;;;5044989;28;20236;-67
2022/06/07 00:06:01;;;;;;;12.53;8.83;;;19.90;99.90;;;;;;5044796;28;20211;-67
2022/06/07 00:08:31;;;;;;;11.70;8.43;;;19.90;99.90;;;;;;5044741;28;20390;-69
2022/06/07 00:10:58;;;;;;;17.20;8.80;;;19.90;99.90;;;;;;5045212;28;20195;-70
2022/06/07 00:13:25;;;;;;;11.53;8.40;;;19.90;99.90;;;;;;5044637;28;20200;-69
2022/06/07 00:15:52;;;;;;;11.80;8.90;;;19.90;99.90;;;;;;5028481;28;20634;-70
2022/06/07 00:18:19;;;;;;;12.30;9.60;;;19.90;99.90;;;;;;5011929;28;20299;-66
2022/06/07 00:20:46;;;;;;;11.23;9.00;;;19.80;99.90;;;;;;5044692;28;20319;-69
2022/06/07 00:23:16;;;;;;;11.73;8.47;;;19.80;99.90;;;;;;5011883;28;20591;-68
2022/06/07 00:25:45;;;;;;;15.50;9.23;;;19.90;99.90;;;;;;5044897;28;20573;-65
2022/06/07 00:28:13;;;;;;;12.83;8.90;;;19.90;99.90;;;;;;5044376;28;20431;-68
2022/06/07 00:30:40;;;;;;;11.40;8.83;;;19.90;99.90;;;;;;5044745;28;20196;-67
2022/06/07 00:33:07;;;;;;;11.77;9.40;;;19.90;99.90;;;;;;5028327;28;20254;-74
2022/06/07 00:35:34;;;;;;;10.83;8.80;;;19.90;99.90;;;;;;5044540;28;20299;-68
2022/06/07 00:38:01;;;;;;;14.77;9.50;;;19.90;99.90;;;;;;5011793;28;20204;-69
2022/06/07 00:40:28;;;;;;;20.27;9.90;;;19.90;99.90;;;;;;5013138;28;20188;-66
2022/06/07 00:42:55;;;;;;;12.70;9.73;;;19.80;99.90;;;;;;5012892;28;20226;-67
2022/06/07 00:45:26;;;;;;;13.17;9.20;;;19.70;99.90;;;;;;5048454;28;20230;-65
2022/06/07 00:47:53;;;;;;;13.63;9.50;;;19.70;99.90;;;;;;5031954;28;20204;-66
2022/06/07 00:50:30;;;;;;;16.47;9.60;;;19.60;99.90;;;;;;5048527;28;20226;-72
2022/06/07 00:52:59;;;;;;;11.47;9.10;;;19.50;99.90;;;;;;5048571;28;20214;-67
2022/06/07 00:55:26;;;;;;;13.17;9.50;;;19.50;99.90;;;;;;5031450;28;20669;-66
2022/06/07 00:57:53;;;;;;;13.80;9.37;;;19.60;99.90;;;;;;5016489;28;20563;-68
2022/06/07 01:00:23;;;;;;;13.87;10.60;;;19.60;99.90;;;;;;5032066;28;20223;-68
2022/06/07 01:02:51;;;;;;;13.20;10.13;;;19.60;99.90;;;;;;5031641;28;20274;-66
2022/06/07 01:05:18;;;;;;;15.77;10.40;;;19.50;99.90;;;;;;5015001;28;20214;-69
2022/06/07 01:10:45;;;;;;;15.43;10.67;;;19.60;99.90;;;;;;5016326;28;20271;-66
2022/06/07 01:13:15;;;;;;;13.60;11.00;;;19.60;99.90;;;;;;4999032;28;20268;-68
2022/06/07 01:15:45;;;;;;;14.70;11.40;;;19.60;99.90;;;;;;5014789;28;20291;-68
2022/06/07 01:18:16;;;;;;;26.40;12.50;;;19.50;99.90;;;;;;5047954;28;20211;-67
2022/06/07 01:20:44;;;;;;;16.33;12.03;;;19.60;99.90;;;;;;5014304;28;20591;-67
2022/06/07 01:23:10;;;;;;;16.30;12.10;;;19.60;99.90;;;;;;5031201;28;20267;-67
2022/06/07 01:25:37;;;;;;;19.90;12.77;;;19.50;99.90;;;;;;5015940;28;20383;-74
2022/06/07 01:28:04;;;;;;;16.30;12.97;;;19.50;99.90;;;;;;5014805;28;20290;-74
2022/06/07 01:30:31;;;;;;;17.90;12.97;;;19.40;99.90;;;;;;5014751;28;20668;-71
2022/06/07 01:32:58;;;;;;;15.00;12.03;;;19.40;99.90;;;;;;5015084;28;20208;-73
2022/06/07 01:35:25;;;;;;;17.53;12.60;;;19.50;99.90;;;;;;5015668;28;20617;-67
2022/06/07 01:37:52;;;;;;;17.90;12.87;;;19.50;99.90;;;;;;5015777;28;20649;-73
2022/06/07 01:43:04;;;;;;;17.70;13.00;;;19.50;99.90;;;;;;5047498;28;20234;-67
2022/06/07 01:45:31;;;;;;;19.43;13.50;;;19.50;99.90;;;;;;5014579;28;20207;-65
2022/06/07 01:47:58;;;;;;;21.57;13.83;;;19.50;99.90;;;;;;5030544;28;20207;-69
2022/06/07 01:50:25;;;;;;;20.03;14.07;;;19.40;99.90;;;;;;5015502;28;20192;-66
2022/06/07 01:52:52;;;;;;;19.13;14.43;;;19.40;99.90;;;;;;5014041;28;20732;-67
2022/06/07 01:55:19;;;;;;;20.60;14.27;;;19.40;99.90;;;;;;5015366;28;20208;-66
2022/06/07 01:57:46;;;;;;;20.80;14.00;;;19.40;99.90;;;;;;5030563;28;20303;-66
2022/06/07 02:00:13;;;;;;;19.13;13.67;;;19.50;99.90;;;;;;5030599;28;20571;-65
2022/06/07 02:02:41;;;;;;;19.13;15.17;;;19.40;99.90;;;;;;5030195;28;20227;-67
2022/06/07 02:05:08;;;;;;;22.93;16.40;;;19.50;99.90;;;;;;5014040;28;20238;-70
2022/06/07 02:07:35;;;;;;;26.00;16.53;;;19.40;99.90;;;;;;5014326;28;20211;-66
2022/06/07 02:10:03;;;;;;;20.53;15.33;;;19.40;99.90;;;;;;5030380;28;20276;-67
2022/06/07 02:12:30;;;;;;;20.33;15.87;;;19.50;99.90;;;;;;5013921;28;20200;-67
2022/06/07 02:14:59;;;;;;;22.83;16.17;;;19.40;99.90;;;;;;5046914;28;20257;-69
2022/06/07 02:17:26;;;;;;;20.17;16.00;;;19.40;99.90;;;;;;5014904;28;20229;-67
2022/06/07 02:19:53;;;;;;;23.10;15.97;;;19.40;99.90;;;;;;5047269;28;20298;-66
2022/06/07 02:22:20;;;;;;;24.37;16.27;;;19.40;99.90;;;;;;5029834;28;20773;-66
2022/06/07 02:24:47;;;;;;;21.30;16.03;;;19.30;99.90;;;;;;5013554;28;20227;-68
2022/06/07 02:27:18;;;;;;;21.67;15.57;;;19.30;99.90;;;;;;5015044;28;20764;-67
2022/06/07 02:29:47;;;;;;;20.87;15.70;;;19.30;99.90;;;;;;5014808;28;20738;-66
2022/06/07 02:32:28;;;;;;;25.90;16.20;;;19.20;99.90;;;;;;5014637;28;20193;-66
2022/06/07 02:34:57;;;;;;;22.00;15.90;;;19.20;99.90;;;;;;5030046;28;20192;-67
2022/06/07 02:37:27;;;;;;;20.50;15.47;;;19.20;99.90;;;;;;5029927;28;20291;-67
2022/06/07 02:39:56;;;;;;;22.90;16.77;;;19.20;99.90;;;;;;5029663;28;20291;-66
2022/06/07 02:42:27;;;;;;;20.60;16.53;;;19.20;99.90;;;;;;5013278;28;20220;-67
2022/06/07 02:44:55;;;;;;;23.87;17.53;;;19.20;99.90;;;;;;5029265;28;20712;-67
2022/06/07 02:47:21;;;;;;;24.00;17.40;;;19.10;99.90;;;;;;5029719;28;20569;-67
2022/06/07 02:49:50;;;;;;;22.80;16.87;;;19.00;99.90;;;;;;5013184;28;20200;-67
2022/06/07 02:52:16;;;;;;;21.53;16.63;;;19.00;99.90;;;;;;5014229;28;20228;-66
2022/06/07 02:54:43;;;;;;;22.43;16.23;;;18.90;99.90;;;;;;5029518;28;20208;-67
2022/06/07 02:57:10;;;;;;;20.10;15.57;;;19.00;99.90;;;;;;5012763;28;20231;-67
2022/06/07 02:59:37;;;;;;;19.83;16.00;;;19.00;99.90;;;;;;5014385;28;20196;-73
2022/06/07 03:02:05;;;;;;;23.07;16.77;;;19.10;99.90;;;;;;5029792;28;20214;-74
2022/06/07 03:04:33;;;;;;;22.77;17.00;;;19.00;99.90;;;;;;5028943;28;20232;-76
2022/06/07 03:07:01;;;;;;;23.73;18.43;;;19.00;99.90;;;;;;5012749;28;20211;-76
2022/06/07 03:09:27;;;;;;;25.17;18.27;;;19.00;99.90;;;;;;5013023;28;20290;-73
2022/06/07 03:11:56;;;;;;;23.47;17.97;;;18.90;99.90;;;;;;5045735;28;20200;-68
2022/06/07 03:14:23;;;;;;;26.53;18.63;;;18.90;99.90;;;;;;5028959;28;20653;-66
2022/06/07 03:16:55;;;;;;;27.40;18.13;;;19.00;99.90;;;;;;5029328;28;20200;-68
2022/06/07 03:19:23;;;;;;;22.70;17.10;;;19.00;99.90;;;;;;5029318;28;20204;-65
2022/06/07 03:21:50;;;;;;;27.63;17.67;;;19.00;99.90;;;;;;5012411;28;20232;-70
2022/06/07 03:24:16;;;;;;;22.53;17.23;;;19.10;99.90;;;;;;5012195;28;20228;-74
2022/06/07 03:26:43;;;;;;;24.00;17.27;;;19.10;99.90;;;;;;5013611;28;20279;-72
2022/06/07 03:29:10;;;;;;;26.63;18.90;;;19.10;99.90;;;;;;5028797;28;20323;-66
2022/06/07 03:31:37;;;;;;;23.57;18.53;;;19.10;99.90;;;;;;5029274;28;20199;-65
2022/06/07 03:34:07;;;;;;;24.70;19.03;;;19.20;99.90;;;;;;5028842;28;20200;-67
2022/06/07 03:36:34;;;;;;;24.43;18.33;;;19.20;99.90;;;;;;5028787;28;20205;-66
2022/06/07 03:39:06;;;;;;;27.63;18.20;;;19.20;99.90;;;;;;5012376;28;20200;-66
2022/06/07 03:41:34;;;;;;;24.43;18.37;;;19.30;99.90;;;;;;5012074;28;20200;-67
2022/06/07 03:44:01;;;;;;;24.43;18.30;;;19.30;99.90;;;;;;5028730;28;20223;-73
2022/06/07 03:46:29;;;;;;;33.10;23.90;;;19.40;99.90;;;;;;5028535;28;20196;-69
2022/06/07 03:48:57;;;;;;;33.70;23.30;;;19.30;99.90;;;;;;5028560;28;20296;-72
2022/06/07 03:51:28;;;;;;;29.13;21.67;;;19.30;99.90;;;;;;5028428;28;20200;-73
2022/06/07 03:53:55;;;;;;;31.13;23.63;;;19.40;99.90;;;;;;5028454;28;20282;-73
2022/06/07 03:56:23;;;;;;;29.30;22.47;;;19.40;99.90;;;;;;5011871;28;20625;-66
2022/06/07 03:58:50;;;;;;;30.07;21.93;;;19.40;99.90;;;;;;5045524;28;20725;-64
2022/06/07 04:01:20;;;;;;;31.40;22.53;;;19.60;99.90;;;;;;5045066;28;20196;-68
2022/06/07 04:03:49;;;;;;;32.47;22.10;;;19.60;99.90;;;;;;5013158;28;20208;-66
2022/06/07 04:06:27;;;;;;;30.53;21.37;;;19.70;99.90;;;;;;5028281;28;20196;-66
2022/06/07 04:08:55;;;;;;;26.23;20.60;;;19.80;99.90;;;;;;5011677;28;20200;-65
2022/06/07 04:11:24;;;;;;;30.07;21.73;;;19.80;99.90;;;;;;5044923;28;20279;-65
2022/06/07 04:13:53;;;;;;;27.73;21.00;;;19.80;99.90;;;;;;5044815;28;20242;-65
2022/06/07 04:16:23;;;;;;;38.60;21.23;;;19.90;99.90;;;;;;5028170;28;20291;-73
2022/06/07 04:18:50;;;;;;;32.47;20.70;;;19.90;99.90;;;;;;5013055;28;20283;-72
2022/06/07 04:21:17;;;;;;;29.67;20.20;;;19.90;99.90;;;;;;5044589;28;20636;-68
2022/06/07 04:23:44;;;;;;;26.83;19.07;;;19.90;99.90;;;;;;5011508;28;20220;-66
2022/06/07 04:26:22;;;;;;;25.43;18.50;;;19.90;99.90;;;;;;5028062;28;20196;-66
2022/06/07 04:28:49;;;;;;;27.20;17.13;;;19.80;99.90;;;;;;5011596;28;20700;-67
2022/06/07 04:31:20;;;;;;;26.70;18.30;;;19.80;99.90;;;;;;5027946;28;20211;-67
2022/06/07 04:33:48;;;;;;;25.50;17.77;;;19.70;99.90;;;;;;5044599;28;20251;-66
2022/06/07 04:36:21;;;;;;;25.20;17.63;;;19.60;99.90;;;;;;5027679;28;20287;-66
2022/06/07 04:38:50;;;;;;;23.40;16.50;;;19.60;99.90;;;;;;5012729;28;20198;-66
2022/06/07 04:41:20;;;;;;;21.67;17.07;;;19.60;99.90;;;;;;5011415;28;20200;-65
2022/06/07 04:43:49;;;;;;;21.10;15.90;;;19.70;99.90;;;;;;5027979;28;20224;-66
2022/06/07 04:46:17;;;;;;;20.53;15.83;;;19.70;99.90;;;;;;5011359;28;20549;-67
2022/06/07 04:48:45;;;;;;;21.13;15.33;;;19.70;99.90;;;;;;5028004;28;20251;-65
2022/06/07 04:51:18;;;;;;;20.97;15.60;;;19.80;99.90;;;;;;5044489;28;20599;-71
2022/06/07 04:53:47;;;;;;;29.57;16.57;;;19.80;99.90;;;;;;5012722;28;20291;-64
2022/06/07 04:56:21;;;;;;;21.33;16.17;;;19.90;99.90;;;;;;5044142;28;20196;-65
2022/06/07 04:58:49;;;;;;;21.67;16.70;;;19.90;99.90;;;;;;5027747;28;20200;-65
2022/06/07 05:01:24;;;;;;;21.83;16.63;;;20.00;99.90;;;;;;5012494;28;20279;-65
2022/06/07 05:03:52;;;;;;;22.27;17.40;;;20.20;99.90;;;;;;5027686;28;20310;-65
2022/06/07 05:06:23;;;;;;;21.90;16.60;;;20.30;99.90;;;;;;5027766;28;20642;-65
2022/06/07 05:08:53;;;;;;;33.07;22.80;;;20.40;99.90;;;;;;5011412;28;20653;-67
2022/06/07 05:11:20;;;;;;;31.27;19.93;;;20.50;99.90;;;;;;5027700;28;20211;-66
2022/06/07 05:13:47;;;;;;;27.77;19.47;;;20.50;99.90;;;;;;5027488;28;20567;-65
2022/06/07 05:16:15;;;;;;;26.30;18.87;;;20.60;99.90;;;;;;5011050;28;20609;-66
2022/06/07 05:18:42;;;;;;;28.80;19.97;;;20.70;99.90;;;;;;5011255;28;20197;-68
2022/06/07 05:21:11;;;;;;;28.27;20.23;;;20.70;99.90;;;;;;5011097;28;20235;-69
2022/06/07 05:23:38;;;;;;;24.63;18.70;;;20.70;99.90;;;;;;5044224;28;20238;-66
2022/06/07 05:26:29;;;;;;;26.43;18.67;;;20.70;99.90;;;;;;5027383;28;20579;-68
2022/06/07 05:28:56;;;;;;;26.23;18.13;;;20.70;99.90;;;;;;5013580;28;20212;-66
2022/06/07 05:31:24;;;;;;;22.93;17.83;;;20.70;99.90;;;;;;5031448;28;20620;-66
2022/06/07 05:33:52;;;;;;;25.13;18.03;;;20.80;99.90;;;;;;5030854;28;20276;-66
2022/06/07 05:36:20;;;;;;;21.23;16.93;;;20.80;99.90;;;;;;5031032;28;20188;-67
2022/06/07 05:38:48;;;;;;;24.90;17.10;;;20.90;99.90;;;;;;5047835;28;20202;-67
2022/06/07 05:41:20;;;;;;;24.87;17.33;;;21.10;99.90;;;;;;5014206;28;20295;-67
2022/06/07 05:43:47;;;;;;;19.43;15.87;;;21.00;99.90;;;;;;5014384;28;20230;-66
2022/06/07 05:46:15;;;;;;;21.17;16.07;;;21.00;99.90;;;;;;5030800;28;20203;-66
2022/06/07 05:48:42;;;;;;;22.00;16.73;;;21.00;99.90;;;;;;5014357;28;20295;-66
2022/06/07 05:51:10;;;;;;;22.57;16.50;;;21.20;99.90;;;;;;5030735;28;20299;-66
2022/06/07 05:53:37;;;;;;;23.53;16.53;;;21.20;99.90;;;;;;5030910;28;20319;-67
2022/06/07 05:56:10;;;;;;;23.50;15.77;;;21.30;99.90;;;;;;5015281;28;20279;-66
2022/06/07 05:58:37;;;;;;;22.87;17.10;;;21.30;99.90;;;;;;5047339;28;20253;-75
2022/06/07 06:01:06;;;;;;;22.70;17.03;;;21.30;99.90;;;;;;5047026;28;20627;-75
2022/06/07 06:03:35;;;;;;;22.77;16.53;;;21.40;99.90;;;;;;5013906;28;20204;-74
2022/06/07 06:06:05;;;;;;;22.83;17.53;;;21.40;99.90;;;;;;5015085;28;20212;-74
2022/06/07 06:11:20;;;;;;;23.30;16.90;;;21.60;99.90;;;;;;5015183;28;20211;-72
2022/06/07 06:13:48;;;;;;;28.27;17.83;;;21.80;99.90;;;;;;5013781;28;20203;-66
2022/06/07 06:16:18;;;;;;;22.43;17.03;;;21.80;99.90;;;;;;5046520;28;20192;-66
2022/06/07 06:18:54;;;;;;;22.57;16.67;;;21.70;99.90;;;;;;5015170;28;20552;-70
2022/06/07 06:21:23;;;;;;;22.53;16.17;;;21.70;99.90;;;;;;5013361;28;20670;-66
2022/06/07 06:23:51;;;;;;;23.93;15.47;;;21.70;99.90;;;;;;5013367;28;20741;-71
2022/06/07 06:26:19;;;;;;;21.93;15.57;;;21.60;99.90;;;;;;5013631;28;20206;-66
2022/06/07 06:28:48;;;;;;;22.87;15.33;;;21.70;99.90;;;;;;5012940;28;20306;-69
2022/06/07 06:31:16;;;;;;;19.60;14.80;;;21.70;99.90;;;;;;5014781;28;20192;-72
2022/06/07 06:33:46;;;;;;;20.17;14.00;;;21.70;99.90;;;;;;4997349;28;20204;-70
2022/06/07 06:36:18;;;;;;;20.30;15.30;;;21.80;99.90;;;;;;5014778;28;20600;-69
2022/06/07 06:38:45;;;;;;;18.27;14.37;;;21.80;99.90;;;;;;5013648;28;20211;-69
2022/06/07 06:41:22;;;;;;;19.43;14.17;;;21.80;99.90;;;;;;5013334;28;20697;-70
2022/06/07 06:43:50;;;;;;;17.90;13.97;;;21.80;99.90;;;;;;5013056;28;20200;-66
2022/06/07 06:46:24;;;;;;;19.07;13.63;;;22.00;99.90;;;;;;5013043;28;20294;-74
2022/06/07 06:48:51;;;;;;;18.27;13.70;;;22.10;99.90;;;;;;5013350;28;20210;-75
2022/06/07 06:51:20;;;;;;;17.33;13.80;;;22.30;99.90;;;;;;5013102;28;20291;-64
2022/06/07 06:53:48;;;;;;;19.50;13.83;;;22.30;99.90;;;;;;5013066;28;20192;-65
2022/06/07 06:56:18;;;;;;;17.83;13.80;;;22.40;99.90;;;;;;5013106;28;20247;-69
2022/06/07 06:58:45;;;;;;;19.73;13.30;;;22.40;99.90;;;;;;5014514;28;20192;-80
2022/06/07 07:01:15;;;;;;;18.17;13.43;;;22.50;99.90;;;;;;5012923;28;20218;-83
2022/06/07 07:03:42;;;;;;;19.27;14.20;;;22.40;99.90;;;;;;5013401;28;20207;-76
2022/06/07 07:06:12;;;;;;;23.30;14.27;;;22.40;99.90;;;;;;5014690;28;20220;-82
2022/06/07 07:08:41;;;;;;;21.30;14.87;;;22.20;99.90;;;;;;4997972;28;20283;-87
2022/06/07 07:11:21;;;;;;;23.17;14.73;;;22.20;99.90;;;;;;5014424;28;20223;-87
2022/06/07 07:13:50;;;;;;;18.43;14.87;;;22.20;99.90;;;;;;5014548;28;20279;-70
2022/06/07 07:16:20;;;;;;;24.63;13.60;;;22.40;99.90;;;;;;5013150;28;20656;-74
2022/06/07 07:18:48;;;;;;;18.30;14.03;;;22.50;99.90;;;;;;5012782;28;20235;-82
2022/06/07 07:21:21;;;;;;;17.63;14.03;;;22.60;99.90;;;;;;5012506;28;20246;-66
2022/06/07 07:23:48;;;;;;;14.90;12.97;;;22.80;99.90;;;;;;5012741;28;20246;-63
2022/06/07 07:26:21;;;;;;;16.93;13.50;;;22.80;99.90;;;;;;5013977;28;20677;-68
2022/06/07 07:28:54;;;;;;;24.37;13.80;;;22.90;99.90;;;;;;5012560;28;20220;-64
2022/06/07 07:31:30;;;;;;;21.00;13.90;;;23.10;99.90;;;;;;5012453;28;20629;-73
2022/06/07 07:33:58;;;;;;;14.60;12.30;;;23.10;99.90;;;;;;5012180;28;20204;-63
2022/06/07 07:36:26;;;;;;;14.83;12.10;;;23.20;99.90;;;;;;5012568;28;20204;-64
2022/06/07 07:38:53;;;;;;;17.27;13.17;;;23.10;99.90;;;;;;5012611;28;20203;-66
2022/06/07 07:41:23;;;;;;;18.50;13.63;;;23.30;99.90;;;;;;5012563;28;20298;-66
2022/06/07 07:43:52;;;;;;;16.00;13.18;;;23.40;99.90;;;;;;5012654;28;20239;-65
2022/06/07 07:46:22;;;;;;;15.25;12.25;;;23.50;99.90;;;;;;5012551;28;20282;-70
2022/06/07 07:48:49;;;;;;;17.63;12.90;;;23.60;99.90;;;;;;5012576;28;20188;-67
2022/06/07 07:51:32;;;;;;;14.65;12.13;;;23.70;99.90;;;;;;5011969;28;20204;-65
2022/06/07 07:54:01;;;;;;;14.82;12.57;;;23.80;99.90;;;;;;5012225;28;20202;-66
2022/06/07 07:56:29;;;;;;;16.42;11.75;;;23.80;99.90;;;;;;5011921;28;20627;-64
2022/06/07 07:58:57;;;;;;;15.17;12.27;;;24.00;99.90;;;;;;5013214;28;20302;-66
2022/06/07 08:01:27;;;;;;;15.25;11.73;;;24.00;99.90;;;;;;5028845;28;20228;-66
2022/06/07 08:03:57;;;;;;;18.58;13.10;;;24.10;99.90;;;;;;5007695;28;20230;-77
2022/06/07 08:06:27;;;;;;;15.80;12.45;;;24.10;99.90;;;;;;5010284;28;20335;-63
2022/06/07 08:08:56;;;;;;;16.00;13.65;;;24.20;99.90;;;;;;5012412;28;20196;-63
2022/06/07 08:11:26;;;;;;;21.33;14.20;;;24.40;99.90;;;;;;5013542;28;20275;-72
2022/06/07 08:13:54;;;;;;;17.63;12.80;;;24.50;99.90;;;;;;4995682;28;20202;-80
2022/06/07 08:16:21;;;;;;;24.13;12.40;;;24.60;99.90;;;;;;5015095;28;20296;-69
2022/06/07 08:18:49;;;;;;;15.25;11.68;;;24.50;99.90;;;;;;5014082;28;20538;-79
2022/06/07 08:21:20;;;;;;;17.35;12.40;;;24.60;99.90;;;;;;5009046;28;20752;-68
2022/06/07 08:23:49;;;;;;;14.40;11.63;;;25.00;99.90;;;;;;5011957;28;20239;-72
2022/06/07 08:26:17;;;;;;;14.50;11.75;;;25.60;99.90;;;;;;5011957;28;20220;-65
2022/06/07 08:28:44;;;;;;;16.17;11.07;;;26.40;99.90;;;;;;5011875;28;20341;-68
2022/06/07 08:31:14;;;;;;;14.93;11.25;;;27.20;99.90;;;;;;5011740;28;20204;-65
2022/06/07 08:39:12;;;;;;;12.38;10.30;;;28.50;99.90;;;;;;5011375;28;20214;-64
2022/06/07 08:41:53;;;;;;;12.63;10.70;;;28.70;99.90;;;;;;5011777;28;20258;-66
2022/06/07 08:44:37;;;;;;;10.70;9.13;;;28.80;99.90;;;;;;5011274;28;20657;-63
2022/06/07 08:47:30;;;;;;;9.23;7.75;;;28.90;99.90;;;;;;5011267;28;20226;-64
2022/06/07 08:50:02;;;;;;;9.60;7.75;;;29.10;99.90;;;;;;5010311;28;20227;-64
2022/06/07 08:52:35;;;;;;;9.90;8.40;;;29.40;99.90;;;;;;5011119;28;20218;-73
2022/06/07 08:55:18;;;;;;;10.55;8.35;;;29.20;99.90;;;;;;5012703;28;20211;-64
2022/06/07 08:57:55;;;;;;;10.02;7.95;;;29.40;99.90;;;;;;5011004;28;20204;-74
2022/06/07 09:00:28;;;;;;;9.52;7.40;;;29.80;99.90;;;;;;5010685;28;20222;-79
2022/06/07 09:03:37;;;;;;;8.52;6.88;;;30.00;98.90;;;;;;5012013;28;20192;-79
2022/06/07 09:06:32;;;;;;;8.35;6.60;;;30.00;97.50;;;;;;5016362;28;20216;-71
2022/06/07 09:09:00;;;;;;;7.60;6.55;;;30.50;96.70;;;;;;5015461;28;20642;-81
2022/06/07 09:14:34;;;;;;;6.57;5.50;;;30.50;91.00;;;;;;5047773;28;20200;-75
2022/06/07 09:17:04;;;;;;;5.93;4.75;;;30.00;92.50;;;;;;5048226;28;20687;-77
2022/06/07 09:19:32;;;;;;;8.27;5.07;;;29.70;90.00;;;;;;5015699;28;20211;-79
2022/06/07 09:22:06;;;;;;;6.13;5.50;;;29.60;91.00;;;;;;5047770;28;20566;-78
2022/06/07 09:24:42;;;;;;;6.50;5.50;;;29.80;91.60;;;;;;5014567;28;20275;-73
2022/06/07 09:27:21;;;;;;;8.40;5.70;;;30.00;91.30;;;;;;5047824;28;20703;-76
2022/06/07 09:29:56;;;;;;;7.00;5.85;;;30.50;90.20;;;;;;5014632;28;20239;-71
2022/06/07 09:32:31;;;;;;;8.23;5.30;;;30.70;89.60;;;;;;5047364;28;20215;-71
2022/06/07 09:35:35;;;;;;;6.60;5.70;;;31.20;89.50;;;;;;5015699;28;20270;-70
2022/06/07 09:38:13;;;;;;;8.00;5.70;;;31.40;89.10;;;;;;5013471;28;20623;-71
2022/06/07 09:40:54;;;;;;;6.28;5.68;;;31.70;86.30;;;;;;5014702;28;20235;-79
2022/06/07 09:43:37;;;;;;;8.10;6.10;;;31.90;87.20;;;;;;5012931;28;20192;-65
2022/06/07 09:46:11;;;;;;;12.27;6.75;;;31.80;84.10;;;;;;5014099;28;20270;-69
2022/06/07 09:48:44;;;;;;;8.55;6.68;;;31.10;83.30;;;;;;5014240;28;20315;-77
2022/06/07 09:51:21;;;;;;;6.95;6.25;;;31.20;91.10;;;;;;5014324;28;20196;-69
2022/06/07 09:54:14;;;;;;;7.10;6.32;;;31.50;93.60;;;;;;5014229;28;20262;-69
2022/06/07 09:56:55;;;;;;;7.32;6.05;;;31.80;92.90;;;;;;5015249;28;20231;-68
2022/06/07 10:00:02;;;;;;;10.68;6.40;;;31.50;92.50;;;;;;5013742;28;20290;-67
2022/06/07 10:02:36;;;;;;;9.70;6.32;;;30.70;92.70;;;;;;5014113;28;20210;-67
2022/06/07 10:05:30;;;;;;;10.57;6.78;;;30.40;94.80;;;;;;5013606;28;20249;-75
2022/06/07 10:08:37;;;;;;;9.43;6.50;;;29.90;94.50;;;;;;5013865;28;20473;-69
2022/06/07 10:11:14;;;;;;;10.52;6.90;;;29.20;95.50;;;;;;4996290;28;20298;-68
2022/06/07 10:14:02;;;;;;;10.15;6.80;;;28.80;96.30;;;;;;5003972;28;20728;-69
2022/06/07 10:16:43;;;;;;;7.78;6.97;;;28.60;95.40;;;;;;4992793;28;20209;-68
2022/06/07 10:19:40;;;;;;;8.35;7.10;;;28.40;96.60;;;;;;4993370;28;20243;-68
2022/06/07 10:22:38;;;;;;;9.93;7.32;;;28.00;97.50;;;;;;4992326;28;20235;-65
2022/06/07 10:25:14;;;;;;;9.40;7.40;;;27.80;97.10;;;;;;4976415;28;20274;-65
2022/06/07 10:27:44;;;;;;;10.60;7.15;;;27.70;99.30;;;;;;4976753;28;20307;-67
2022/06/07 10:30:31;;;;;;;10.07;7.75;;;27.60;99.90;;;;;;4992734;28;20217;-68
2022/06/07 10:33:10;;;;;;;11.98;7.55;;;27.60;99.90;;;;;;4993006;28;20267;-78
2022/06/07 10:35:46;;;;;;;9.48;7.93;;;27.40;99.70;;;;;;4992618;28;20687;-66
2022/06/07 10:38:50;;;;;;;13.70;8.07;;;27.00;99.90;;;;;;4992766;28;20287;-66
2022/06/07 10:41:22;;;;;;;9.30;7.45;;;26.80;99.90;;;;;;4992767;28;20259;-65
2022/06/07 10:43:58;;;;;;;18.95;8.68;;;26.70;99.90;;;;;;4988942;28;20201;-66
2022/06/07 10:46:27;;;;;;;9.98;8.00;;;26.40;99.90;;;;;;4956187;28;20231;-66
2022/06/07 10:49:28;;;;;;;12.35;8.52;;;26.30;99.90;;;;;;4985531;28;20233;-69
2022/06/07 10:52:22;;;;;;;13.75;8.70;;;26.40;99.90;;;;;;5025669;28;20287;-65
2022/06/07 10:54:55;;;;;;;11.55;8.43;;;26.30;99.90;;;;;;5025713;28;20718;-66
2022/06/07 10:57:31;;;;;;;10.10;8.23;;;26.20;99.90;;;;;;5026087;28;20548;-66
2022/06/07 11:00:11;;;;;;;10.48;8.32;;;26.10;99.90;;;;;;4992549;28;20224;-67
2022/06/07 11:03:00;;;;;;;10.35;8.60;;;26.10;99.90;;;;;;5025659;28;20204;-69
2022/06/07 11:11:15;;;;;;;10.88;9.20;;;25.80;99.90;;;;;;5031418;28;20287;-68
2022/06/07 11:14:04;;;;;;;11.52;8.93;;;25.80;99.90;;;;;;5031276;28;20591;-67
2022/06/07 11:16:56;;;;;;;12.15;8.95;;;25.90;99.90;;;;;;5031248;28;20294;-66
2022/06/07 11:19:24;;;;;;;11.02;8.73;;;26.20;99.90;;;;;;5014884;28;20203;-66
2022/06/07 11:21:56;;;;;;;9.88;8.88;;;26.40;99.90;;;;;;5018127;28;20314;-67
2022/06/07 11:24:29;;;;;;;10.73;9.10;;;26.80;99.90;;;;;;5004505;28;20208;-71
2022/06/07 11:26:57;;;;;;;13.80;9.48;;;27.10;99.90;;;;;;5030089;28;20266;-68
2022/06/07 11:29:29;;;;;;;12.25;8.95;;;27.40;99.90;;;;;;5014354;28;20316;-70
2022/06/07 11:31:57;;;;;;;14.75;8.43;;;27.80;99.90;;;;;;5014354;28;20207;-69
2022/06/07 11:34:34;;;;;;;10.85;9.18;;;28.40;99.90;;;;;;5014364;28;20203;-69
2022/06/07 11:37:13;;;;;;;9.95;8.70;;;28.30;99.90;;;;;;5014483;28;20191;-69
2022/06/07 11:39:39;;;;;;;11.05;8.52;;;28.50;99.90;;;;;;5030974;28;20207;-71
2022/06/07 11:42:21;;;;;;;11.45;8.80;;;28.90;99.90;;;;;;5031026;28;20623;-69
2022/06/07 11:45:06;;;;;;;11.10;8.65;;;29.20;99.90;;;;;;5006472;28;20585;-65
2022/06/07 11:47:46;;;;;;;11.30;8.88;;;29.20;99.90;;;;;;5024983;28;20599;-65
2022/06/07 11:50:41;;;;;;;9.18;7.82;;;28.50;98.90;;;;;;4992554;28;20232;-68
2022/06/07 11:53:34;;;;;;;10.57;8.25;;;28.80;99.90;;;;;;5024856;28;20197;-64
2022/06/07 11:56:24;;;;;;;14.18;9.27;;;28.80;98.00;;;;;;5031001;28;20195;-65
2022/06/07 11:59:23;;;;;;;10.98;8.48;;;29.00;98.50;;;;;;5014638;28;20207;-64
2022/06/07 12:01:53;;;;;;;10.63;8.25;;;29.30;99.90;;;;;;5042974;28;20708;-64
2022/06/07 12:04:43;;;;;;;10.32;8.18;;;29.60;99.90;;;;;;5011467;28;20249;-67
2022/06/07 12:07:19;;;;;;;12.75;8.85;;;29.90;99.90;;;;;;5025020;28;20762;-65
2022/06/07 12:10:01;;;;;;;8.95;7.88;;;30.20;99.90;;;;;;5014384;28;20187;-70
2022/06/07 12:12:35;;;;;;;11.82;8.32;;;30.80;99.80;;;;;;5008598;28;20196;-66
2022/06/07 12:15:22;;;;;;;9.27;7.85;;;31.30;96.60;;;;;;5011959;28;20286;-68
2022/06/07 12:17:58;;;;;;;9.43;7.80;;;31.80;93.70;;;;;;5011823;28;20221;-64
2022/06/07 12:20:33;;;;;;;9.00;7.25;;;31.90;94.30;;;;;;5011043;28;20196;-67
2022/06/07 12:23:17;;;;;;;7.93;7.13;;;32.20;92.50;;;;;;5010237;28;20212;-66
2022/06/07 12:25:55;;;;;;;8.32;7.43;;;32.60;91.30;;;;;;5012498;28;20219;-64
2022/06/07 12:28:27;;;;;;;10.90;7.57;;;32.70;91.10;;;;;;5010349;28;20650;-64
2022/06/07 12:30:54;;;;;;;11.63;7.80;;;32.80;86.20;;;;;;5022565;28;20676;-65
2022/06/07 12:33:34;;;;;;;8.18;7.00;;;32.60;90.90;;;;;;5030929;28;20539;-68
2022/06/07 12:36:11;;;;;;;13.43;7.35;;;32.70;84.10;;;;;;5030842;28;20309;-65
2022/06/07 12:38:43;;;;;;;8.55;6.60;;;32.70;83.70;;;;;;5015422;28;20613;-65
2022/06/07 12:41:15;;;;;;;8.98;7.10;;;32.80;87.60;;;;;;5068035;28;20227;-64
2022/06/07 12:43:54;;;;;;;8.43;7.10;;;33.30;84.20;;;;;;5033725;28;20566;-76
2022/06/07 12:46:27;;;;;;;9.10;7.38;;;33.50;85.30;;;;;;5031784;28;20227;-70
2022/06/07 12:48:56;;;;;;;18.55;7.90;;;33.70;79.70;;;;;;5027673;28;20193;-64
2022/06/07 12:51:22;;;;;;;7.65;6.72;;;33.90;79.00;;;;;;5051800;28;20199;-80
2022/06/07 12:53:58;;;;;;;7.70;6.75;;;34.10;75.20;;;;;;5035111;28;20660;-68
2022/06/07 12:56:28;;;;;;;7.65;6.88;;;34.00;77.00;;;;;;5058734;28;20210;-66
2022/06/07 12:58:57;;;;;;;9.65;6.95;;;34.40;72.00;;;;;;5016363;28;20539;-65
2022/06/07 13:01:32;;;;;;;12.23;7.20;;;34.50;73.60;;;;;;5047784;28;20673;-79
2022/06/07 13:04:16;;;;;;;8.95;6.50;;;34.40;71.90;;;;;;5047525;28;20299;-71
2022/06/07 13:07:07;;;;;;;8.00;6.57;;;34.40;73.80;;;;;;5033396;28;20348;-78
2022/06/07 13:10:05;;;;;;;8.38;6.35;;;33.60;73.50;;;;;;5023366;28;20217;-69
2022/06/07 13:12:35;;;;;;;7.07;6.38;;;33.20;73.00;;;;;;5068535;28;20238;-75
2022/06/07 13:15:11;;;;;;;10.35;6.32;;;32.60;73.90;;;;;;5032939;28;20223;-70
2022/06/07 13:17:41;;;;;;;10.70;6.63;;;32.10;72.80;;;;;;5060075;28;20203;-66
2022/06/07 13:20:24;;;;;;;7.88;6.35;;;31.90;75.70;;;;;;5034457;28;20210;-77
2022/06/07 13:22:51;;;;;;;7.85;6.80;;;31.60;77.50;;;;;;5050289;28;20291;-75